sensor_id;sensor_type;location;lat;lon;timestamp;P1;durP1;ratioP1;P2;durP2;ratioP2
78858;SDS011;68210;52.032;4.634;2023-04-03T00:00:58;3.55;;;1.15;;
78858;SDS011;68210;52.032;4.634;2023-04-03T00:02:59;2.42;;;0.90;;
78858;SDS011;68210;52.032;4.634;2023-04-03T00:04:59;1.88;;;1.05;;
78858;SDS011;68210;52.032;4.634;2023-04-03T00:07:00;2.85;;;1.65;;
78858;SDS011;68210;52.032;4.634;2023-04-03T00:09:01;3.58;;;1.17;;
78858;SDS011;68210;52.032;4.634;2023-04-03T00:11:01;2.35;;;1.05;;
78858;SDS011;68210;52.032;4.634;2023-04-03T00:13:03;2.17;;;1.00;;
78858;SDS011;68210;52.032;4.634;2023-04-03T00:15:05;3.25;;;1.40;;
78858;SDS011;68210;52.032;4.634;2023-04-03T00:17:05;4.30;;;1.60;;
78858;SDS011;68210;52.032;4.634;2023-04-03T00:19:06;3.17;;;1.25;;
78858;SDS011;68210;52.032;4.634;2023-04-03T00:21:07;3.05;;;1.48;;
78858;SDS011;68210;52.032;4.634;2023-04-03T00:23:10;3.05;;;1.33;;
78858;SDS011;68210;52.032;4.634;2023-04-03T00:25:10;4.32;;;1.30;;
78858;SDS011;68210;52.032;4.634;2023-04-03T00:27:10;4.80;;;1.08;;
78858;SDS011;68210;52.032;4.634;2023-04-03T00:29:11;3.53;;;1.20;;
78858;SDS011;68210;52.032;4.634;2023-04-03T00:31:13;3.85;;;1.25;;
78858;SDS011;68210;52.032;4.634;2023-04-03T00:33:15;2.15;;;1.40;;
78858;SDS011;68210;52.032;4.634;2023-04-03T00:35:16;2.10;;;1.02;;
78858;SDS011;68210;52.032;4.634;2023-04-03T00:37:17;3.22;;;1.00;;
78858;SDS011;68210;52.032;4.634;2023-04-03T00:39:17;2.97;;;1.20;;
78858;SDS011;68210;52.032;4.634;2023-04-03T00:41:18;2.13;;;1.05;;
78858;SDS011;68210;52.032;4.634;2023-04-03T00:43:22;1.98;;;1.00;;
78858;SDS011;68210;52.032;4.634;2023-04-03T00:45:31;3.72;;;1.30;;
78858;SDS011;68210;52.032;4.634;2023-04-03T00:47:36;3.78;;;1.52;;
78858;SDS011;68210;52.032;4.634;2023-04-03T00:49:38;4.47;;;1.73;;
78858;SDS011;68210;52.032;4.634;2023-04-03T00:51:40;2.25;;;1.20;;
78858;SDS011;68210;52.032;4.634;2023-04-03T00:55:50;2.13;;;1.08;;
78858;SDS011;68210;52.032;4.634;2023-04-03T00:57:52;3.15;;;1.40;;
78858;SDS011;68210;52.032;4.634;2023-04-03T00:59:55;2.17;;;1.25;;
78858;SDS011;68210;52.032;4.634;2023-04-03T01:02:00;2.67;;;1.15;;
78858;SDS011;68210;52.032;4.634;2023-04-03T01:04:01;2.38;;;1.10;;
78858;SDS011;68210;52.032;4.634;2023-04-03T01:06:03;3.40;;;1.23;;
78858;SDS011;68210;52.032;4.634;2023-04-03T01:08:03;2.22;;;1.25;;
78858;SDS011;68210;52.032;4.634;2023-04-03T01:10:07;3.83;;;1.30;;
78858;SDS011;68210;52.032;4.634;2023-04-03T01:12:20;3.28;;;1.00;;
78858;SDS011;68210;52.032;4.634;2023-04-03T01:14:29;3.03;;;1.48;;
78858;SDS011;68210;52.032;4.634;2023-04-03T01:16:30;3.58;;;1.17;;
78858;SDS011;68210;52.032;4.634;2023-04-03T01:18:31;4.50;;;1.83;;
78858;SDS011;68210;52.032;4.634;2023-04-03T01:22:40;2.08;;;0.90;;
78858;SDS011;68210;52.032;4.634;2023-04-03T01:25:02;1.88;;;1.00;;
78858;SDS011;68210;52.032;4.634;2023-04-03T01:27:03;3.15;;;1.02;;
78858;SDS011;68210;52.032;4.634;2023-04-03T01:29:06;2.63;;;1.15;;
78858;SDS011;68210;52.032;4.634;2023-04-03T01:31:16;2.15;;;1.13;;
78858;SDS011;68210;52.032;4.634;2023-04-03T01:33:31;4.03;;;1.50;;
78858;SDS011;68210;52.032;4.634;2023-04-03T01:35:32;4.20;;;1.70;;
78858;SDS011;68210;52.032;4.634;2023-04-03T01:37:33;2.70;;;1.00;;
78858;SDS011;68210;52.032;4.634;2023-04-03T01:39:33;2.15;;;1.20;;
78858;SDS011;68210;52.032;4.634;2023-04-03T01:41:33;1.48;;;0.90;;
78858;SDS011;68210;52.032;4.634;2023-04-03T01:43:34;2.25;;;1.13;;
78858;SDS011;68210;52.032;4.634;2023-04-03T01:45:34;3.35;;;1.20;;
78858;SDS011;68210;52.032;4.634;2023-04-03T01:47:35;1.35;;;0.82;;
78858;SDS011;68210;52.032;4.634;2023-04-03T01:49:35;1.83;;;1.10;;
78858;SDS011;68210;52.032;4.634;2023-04-03T01:51:36;4.13;;;1.30;;
78858;SDS011;68210;52.032;4.634;2023-04-03T01:55:36;2.23;;;1.00;;
78858;SDS011;68210;52.032;4.634;2023-04-03T01:57:37;6.93;;;1.20;;
78858;SDS011;68210;52.032;4.634;2023-04-03T01:59:37;2.75;;;1.40;;
78858;SDS011;68210;52.032;4.634;2023-04-03T02:01:37;5.68;;;1.30;;
78858;SDS011;68210;52.032;4.634;2023-04-03T02:03:38;2.88;;;1.42;;
78858;SDS011;68210;52.032;4.634;2023-04-03T02:05:47;2.51;;;1.08;;
78858;SDS011;68210;52.032;4.634;2023-04-03T02:07:48;3.17;;;1.90;;
78858;SDS011;68210;52.032;4.634;2023-04-03T02:09:48;2.28;;;1.10;;
78858;SDS011;68210;52.032;4.634;2023-04-03T02:11:49;1.70;;;1.10;;
78858;SDS011;68210;52.032;4.634;2023-04-03T02:13:49;3.42;;;1.33;;
78858;SDS011;68210;52.032;4.634;2023-04-03T02:15:50;4.60;;;1.30;;
78858;SDS011;68210;52.032;4.634;2023-04-03T02:17:50;4.30;;;1.35;;
78858;SDS011;68210;52.032;4.634;2023-04-03T02:19:50;5.93;;;1.38;;
78858;SDS011;68210;52.032;4.634;2023-04-03T02:21:51;4.05;;;1.70;;
78858;SDS011;68210;52.032;4.634;2023-04-03T02:23:51;4.95;;;1.80;;
78858;SDS011;68210;52.032;4.634;2023-04-03T02:25:51;4.15;;;1.92;;
78858;SDS011;68210;52.032;4.634;2023-04-03T02:27:52;3.63;;;1.58;;
78858;SDS011;68210;52.032;4.634;2023-04-03T02:29:52;3.17;;;1.50;;
78858;SDS011;68210;52.032;4.634;2023-04-03T02:31:53;1.92;;;1.17;;
78858;SDS011;68210;52.032;4.634;2023-04-03T02:33:53;4.32;;;1.45;;
78858;SDS011;68210;52.032;4.634;2023-04-03T02:35:54;3.67;;;1.73;;
78858;SDS011;68210;52.032;4.634;2023-04-03T02:37:56;3.28;;;1.30;;
78858;SDS011;68210;52.032;4.634;2023-04-03T02:39:56;2.33;;;1.38;;
78858;SDS011;68210;52.032;4.634;2023-04-03T02:41:56;2.58;;;1.33;;
78858;SDS011;68210;52.032;4.634;2023-04-03T02:43:57;3.53;;;1.38;;
78858;SDS011;68210;52.032;4.634;2023-04-03T02:45:57;2.53;;;1.35;;
78858;SDS011;68210;52.032;4.634;2023-04-03T02:47:58;2.30;;;1.10;;
78858;SDS011;68210;52.032;4.634;2023-04-03T02:49:58;3.22;;;1.35;;
78858;SDS011;68210;52.032;4.634;2023-04-03T02:51:58;3.78;;;1.60;;
78858;SDS011;68210;52.032;4.634;2023-04-03T02:53:59;2.58;;;1.20;;
78858;SDS011;68210;52.032;4.634;2023-04-03T02:55:59;4.43;;;1.70;;
78858;SDS011;68210;52.032;4.634;2023-04-03T02:58:00;2.33;;;1.60;;
78858;SDS011;68210;52.032;4.634;2023-04-03T03:00:00;3.30;;;1.40;;
78858;SDS011;68210;52.032;4.634;2023-04-03T03:02:00;2.58;;;1.42;;
78858;SDS011;68210;52.032;4.634;2023-04-03T03:04:01;5.22;;;1.55;;
78858;SDS011;68210;52.032;4.634;2023-04-03T03:06:02;4.25;;;1.30;;
78858;SDS011;68210;52.032;4.634;2023-04-03T03:08:03;2.92;;;1.60;;
78858;SDS011;68210;52.032;4.634;2023-04-03T03:10:03;4.18;;;1.48;;
78858;SDS011;68210;52.032;4.634;2023-04-03T03:12:04;2.97;;;1.85;;
78858;SDS011;68210;52.032;4.634;2023-04-03T03:14:05;4.70;;;1.40;;
78858;SDS011;68210;52.032;4.634;2023-04-03T03:16:05;6.30;;;1.33;;
78858;SDS011;68210;52.032;4.634;2023-04-03T03:18:06;2.40;;;1.30;;
78858;SDS011;68210;52.032;4.634;2023-04-03T03:20:07;5.10;;;1.55;;
78858;SDS011;68210;52.032;4.634;2023-04-03T03:22:08;2.95;;;1.67;;
78858;SDS011;68210;52.032;4.634;2023-04-03T03:24:08;2.63;;;1.55;;
78858;SDS011;68210;52.032;4.634;2023-04-03T03:26:09;3.00;;;1.23;;
78858;SDS011;68210;52.032;4.634;2023-04-03T03:28:10;3.95;;;1.77;;
78858;SDS011;68210;52.032;4.634;2023-04-03T03:30:11;3.33;;;1.42;;
78858;SDS011;68210;52.032;4.634;2023-04-03T03:32:12;4.18;;;1.75;;
78858;SDS011;68210;52.032;4.634;2023-04-03T03:34:12;5.60;;;1.80;;
78858;SDS011;68210;52.032;4.634;2023-04-03T03:36:13;4.78;;;1.70;;
78858;SDS011;68210;52.032;4.634;2023-04-03T03:38:13;5.65;;;1.48;;
78858;SDS011;68210;52.032;4.634;2023-04-03T03:40:14;2.80;;;1.48;;
78858;SDS011;68210;52.032;4.634;2023-04-03T03:42:14;3.95;;;1.27;;
78858;SDS011;68210;52.032;4.634;2023-04-03T03:44:15;3.05;;;1.58;;
78858;SDS011;68210;52.032;4.634;2023-04-03T03:46:16;2.80;;;1.50;;
78858;SDS011;68210;52.032;4.634;2023-04-03T03:48:16;2.00;;;1.45;;
78858;SDS011;68210;52.032;4.634;2023-04-03T03:50:16;4.90;;;1.42;;
78858;SDS011;68210;52.032;4.634;2023-04-03T03:52:17;3.80;;;1.65;;
78858;SDS011;68210;52.032;4.634;2023-04-03T03:54:17;3.00;;;1.95;;
78858;SDS011;68210;52.032;4.634;2023-04-03T03:56:18;3.17;;;1.58;;
78858;SDS011;68210;52.032;4.634;2023-04-03T03:58:18;3.67;;;1.50;;
78858;SDS011;68210;52.032;4.634;2023-04-03T04:00:19;3.22;;;1.63;;
78858;SDS011;68210;52.032;4.634;2023-04-03T04:02:19;2.47;;;1.55;;
78858;SDS011;68210;52.032;4.634;2023-04-03T04:04:20;5.38;;;1.90;;
78858;SDS011;68210;52.032;4.634;2023-04-03T04:06:20;3.47;;;1.92;;
78858;SDS011;68210;52.032;4.634;2023-04-03T04:08:21;5.30;;;2.00;;
78858;SDS011;68210;52.032;4.634;2023-04-03T04:10:21;4.57;;;2.00;;
78858;SDS011;68210;52.032;4.634;2023-04-03T04:12:22;4.78;;;1.63;;
78858;SDS011;68210;52.032;4.634;2023-04-03T04:14:22;4.95;;;1.58;;
78858;SDS011;68210;52.032;4.634;2023-04-03T04:16:23;3.80;;;1.85;;
78858;SDS011;68210;52.032;4.634;2023-04-03T04:18:23;3.88;;;1.92;;
78858;SDS011;68210;52.032;4.634;2023-04-03T04:20:24;3.90;;;1.67;;
78858;SDS011;68210;52.032;4.634;2023-04-03T04:22:24;8.77;;;2.03;;
78858;SDS011;68210;52.032;4.634;2023-04-03T04:24:24;4.88;;;2.10;;
78858;SDS011;68210;52.032;4.634;2023-04-03T04:26:25;5.57;;;2.05;;
78858;SDS011;68210;52.032;4.634;2023-04-03T04:28:25;6.07;;;2.13;;
78858;SDS011;68210;52.032;4.634;2023-04-03T04:30:26;5.75;;;2.35;;
78858;SDS011;68210;52.032;4.634;2023-04-03T04:32:27;4.38;;;2.28;;
78858;SDS011;68210;52.032;4.634;2023-04-03T04:34:27;3.60;;;1.52;;
78858;SDS011;68210;52.032;4.634;2023-04-03T04:36:28;3.88;;;1.67;;
78858;SDS011;68210;52.032;4.634;2023-04-03T04:38:28;5.10;;;2.08;;
78858;SDS011;68210;52.032;4.634;2023-04-03T04:40:30;3.05;;;1.40;;
78858;SDS011;68210;52.032;4.634;2023-04-03T04:42:30;5.15;;;1.77;;
78858;SDS011;68210;52.032;4.634;2023-04-03T04:44:31;4.15;;;1.63;;
78858;SDS011;68210;52.032;4.634;2023-04-03T04:46:31;4.57;;;1.77;;
78858;SDS011;68210;52.032;4.634;2023-04-03T04:48:32;3.42;;;1.38;;
78858;SDS011;68210;52.032;4.634;2023-04-03T04:50:33;4.25;;;2.15;;
78858;SDS011;68210;52.032;4.634;2023-04-03T04:52:33;4.55;;;1.85;;
78858;SDS011;68210;52.032;4.634;2023-04-03T04:54:37;4.97;;;1.90;;
78858;SDS011;68210;52.032;4.634;2023-04-03T04:56:40;2.60;;;1.38;;
78858;SDS011;68210;52.032;4.634;2023-04-03T05:00:40;2.87;;;1.73;;
78858;SDS011;68210;52.032;4.634;2023-04-03T05:02:41;5.00;;;2.33;;
78858;SDS011;68210;52.032;4.634;2023-04-03T05:04:41;3.03;;;1.80;;
78858;SDS011;68210;52.032;4.634;2023-04-03T05:06:42;4.00;;;2.33;;
78858;SDS011;68210;52.032;4.634;2023-04-03T05:08:42;4.90;;;2.00;;
78858;SDS011;68210;52.032;4.634;2023-04-03T05:10:44;3.88;;;2.00;;
78858;SDS011;68210;52.032;4.634;2023-04-03T05:12:45;4.45;;;2.13;;
78858;SDS011;68210;52.032;4.634;2023-04-03T05:14:46;3.20;;;1.95;;
78858;SDS011;68210;52.032;4.634;2023-04-03T05:16:46;4.22;;;1.73;;
78858;SDS011;68210;52.032;4.634;2023-04-03T05:18:47;6.88;;;2.03;;
78858;SDS011;68210;52.032;4.634;2023-04-03T05:20:48;3.13;;;1.83;;
78858;SDS011;68210;52.032;4.634;2023-04-03T05:22:50;3.28;;;1.90;;
78858;SDS011;68210;52.032;4.634;2023-04-03T05:24:50;12.48;;;2.15;;
78858;SDS011;68210;52.032;4.634;2023-04-03T05:26:51;3.67;;;1.98;;
78858;SDS011;68210;52.032;4.634;2023-04-03T05:28:51;5.45;;;2.97;;
78858;SDS011;68210;52.032;4.634;2023-04-03T05:30:52;6.13;;;2.00;;
78858;SDS011;68210;52.032;4.634;2023-04-03T05:32:58;6.47;;;2.05;;
78858;SDS011;68210;52.032;4.634;2023-04-03T05:34:59;5.85;;;1.70;;
78858;SDS011;68210;52.032;4.634;2023-04-03T05:36:59;4.00;;;1.95;;
78858;SDS011;68210;52.032;4.634;2023-04-03T05:39:00;5.63;;;1.88;;
78858;SDS011;68210;52.032;4.634;2023-04-03T05:41:00;4.30;;;1.58;;
78858;SDS011;68210;52.032;4.634;2023-04-03T05:43:01;9.75;;;2.53;;
78858;SDS011;68210;52.032;4.634;2023-04-03T05:45:01;4.40;;;1.70;;
78858;SDS011;68210;52.032;4.634;2023-04-03T05:47:02;7.45;;;2.67;;
78858;SDS011;68210;52.032;4.634;2023-04-03T05:49:02;5.97;;;2.72;;
78858;SDS011;68210;52.032;4.634;2023-04-03T05:51:03;3.13;;;1.85;;
78858;SDS011;68210;52.032;4.634;2023-04-03T05:53:04;5.60;;;2.17;;
78858;SDS011;68210;52.032;4.634;2023-04-03T05:55:05;4.78;;;2.00;;
78858;SDS011;68210;52.032;4.634;2023-04-03T05:57:05;2.78;;;1.42;;
78858;SDS011;68210;52.032;4.634;2023-04-03T05:59:06;6.50;;;1.98;;
78858;SDS011;68210;52.032;4.634;2023-04-03T06:01:07;3.20;;;1.70;;
78858;SDS011;68210;52.032;4.634;2023-04-03T06:03:07;3.13;;;1.85;;
78858;SDS011;68210;52.032;4.634;2023-04-03T06:05:08;4.32;;;1.50;;
78858;SDS011;68210;52.032;4.634;2023-04-03T06:07:12;4.50;;;1.63;;
78858;SDS011;68210;52.032;4.634;2023-04-03T06:09:15;5.22;;;2.38;;
78858;SDS011;68210;52.032;4.634;2023-04-03T06:11:16;5.82;;;2.22;;
78858;SDS011;68210;52.032;4.634;2023-04-03T06:13:17;2.92;;;1.58;;
78858;SDS011;68210;52.032;4.634;2023-04-03T06:15:17;4.22;;;1.63;;
78858;SDS011;68210;52.032;4.634;2023-04-03T06:17:18;8.43;;;2.10;;
78858;SDS011;68210;52.032;4.634;2023-04-03T06:19:18;3.42;;;1.60;;
78858;SDS011;68210;52.032;4.634;2023-04-03T06:21:19;3.60;;;1.90;;
78858;SDS011;68210;52.032;4.634;2023-04-03T06:23:19;3.38;;;1.77;;
78858;SDS011;68210;52.032;4.634;2023-04-03T06:25:20;5.22;;;1.55;;
78858;SDS011;68210;52.032;4.634;2023-04-03T06:27:21;5.60;;;1.80;;
78858;SDS011;68210;52.032;4.634;2023-04-03T06:29:21;4.43;;;1.80;;
78858;SDS011;68210;52.032;4.634;2023-04-03T06:31:22;3.67;;;1.50;;
78858;SDS011;68210;52.032;4.634;2023-04-03T06:33:22;3.92;;;2.08;;
78858;SDS011;68210;52.032;4.634;2023-04-03T06:35:23;3.92;;;1.63;;
78858;SDS011;68210;52.032;4.634;2023-04-03T06:37:23;5.68;;;2.20;;
78858;SDS011;68210;52.032;4.634;2023-04-03T06:39:30;3.72;;;1.70;;
78858;SDS011;68210;52.032;4.634;2023-04-03T06:41:30;8.10;;;2.00;;
78858;SDS011;68210;52.032;4.634;2023-04-03T06:43:31;6.13;;;2.13;;
78858;SDS011;68210;52.032;4.634;2023-04-03T06:45:32;4.55;;;2.00;;
78858;SDS011;68210;52.032;4.634;2023-04-03T06:47:32;6.15;;;2.08;;
78858;SDS011;68210;52.032;4.634;2023-04-03T06:49:33;3.45;;;1.67;;
78858;SDS011;68210;52.032;4.634;2023-04-03T06:51:33;3.05;;;1.45;;
78858;SDS011;68210;52.032;4.634;2023-04-03T06:53:35;4.97;;;1.52;;
78858;SDS011;68210;52.032;4.634;2023-04-03T06:55:35;2.72;;;1.33;;
78858;SDS011;68210;52.032;4.634;2023-04-03T06:57:36;3.58;;;1.60;;
78858;SDS011;68210;52.032;4.634;2023-04-03T06:59:37;2.75;;;1.40;;
78858;SDS011;68210;52.032;4.634;2023-04-03T07:01:38;7.53;;;1.80;;
78858;SDS011;68210;52.032;4.634;2023-04-03T07:03:38;5.60;;;1.50;;
78858;SDS011;68210;52.032;4.634;2023-04-03T07:05:40;5.28;;;1.77;;
78858;SDS011;68210;52.032;4.634;2023-04-03T07:07:40;7.57;;;2.28;;
78858;SDS011;68210;52.032;4.634;2023-04-03T07:09:41;3.92;;;1.58;;
78858;SDS011;68210;52.032;4.634;2023-04-03T07:11:42;5.20;;;1.83;;
78858;SDS011;68210;52.032;4.634;2023-04-03T07:13:44;4.22;;;1.45;;
78858;SDS011;68210;52.032;4.634;2023-04-03T07:15:44;5.18;;;2.00;;
78858;SDS011;68210;52.032;4.634;2023-04-03T07:17:45;4.82;;;1.45;;
78858;SDS011;68210;52.032;4.634;2023-04-03T07:19:45;3.83;;;1.42;;
78858;SDS011;68210;52.032;4.634;2023-04-03T07:21:46;3.38;;;1.40;;
78858;SDS011;68210;52.032;4.634;2023-04-03T07:23:47;6.63;;;1.52;;
78858;SDS011;68210;52.032;4.634;2023-04-03T07:25:48;4.45;;;1.35;;
78858;SDS011;68210;52.032;4.634;2023-04-03T07:27:50;5.43;;;2.05;;
78858;SDS011;68210;52.032;4.634;2023-04-03T07:29:50;5.15;;;1.42;;
78858;SDS011;68210;52.032;4.634;2023-04-03T07:31:51;3.22;;;1.40;;
78858;SDS011;68210;52.032;4.634;2023-04-03T07:33:53;6.32;;;1.52;;
78858;SDS011;68210;52.032;4.634;2023-04-03T07:35:53;3.60;;;1.92;;
78858;SDS011;68210;52.032;4.634;2023-04-03T07:37:54;4.05;;;1.45;;
78858;SDS011;68210;52.032;4.634;2023-04-03T07:39:55;3.92;;;1.42;;
78858;SDS011;68210;52.032;4.634;2023-04-03T07:41:57;2.63;;;1.38;;
78858;SDS011;68210;52.032;4.634;2023-04-03T07:43:57;6.70;;;1.50;;
78858;SDS011;68210;52.032;4.634;2023-04-03T07:45:58;5.43;;;1.85;;
78858;SDS011;68210;52.032;4.634;2023-04-03T07:47:59;4.75;;;1.70;;
78858;SDS011;68210;52.032;4.634;2023-04-03T07:50:00;4.80;;;1.80;;
78858;SDS011;68210;52.032;4.634;2023-04-03T07:52:01;2.83;;;1.83;;
78858;SDS011;68210;52.032;4.634;2023-04-03T07:54:01;3.75;;;1.25;;
78858;SDS011;68210;52.032;4.634;2023-04-03T07:56:02;5.50;;;1.25;;
78858;SDS011;68210;52.032;4.634;2023-04-03T07:58:02;8.05;;;2.25;;
78858;SDS011;68210;52.032;4.634;2023-04-03T08:00:03;4.40;;;1.45;;
78858;SDS011;68210;52.032;4.634;2023-04-03T08:02:05;3.92;;;1.52;;
78858;SDS011;68210;52.032;4.634;2023-04-03T08:04:05;6.45;;;2.38;;
78858;SDS011;68210;52.032;4.634;2023-04-03T08:06:07;3.47;;;1.35;;
78858;SDS011;68210;52.032;4.634;2023-04-03T08:08:08;4.30;;;1.52;;
78858;SDS011;68210;52.032;4.634;2023-04-03T08:10:11;3.33;;;1.55;;
78858;SDS011;68210;52.032;4.634;2023-04-03T08:12:12;5.00;;;1.50;;
78858;SDS011;68210;52.032;4.634;2023-04-03T08:14:14;4.40;;;1.75;;
78858;SDS011;68210;52.032;4.634;2023-04-03T08:16:20;4.70;;;1.30;;
78858;SDS011;68210;52.032;4.634;2023-04-03T08:18:22;8.90;;;2.08;;
78858;SDS011;68210;52.032;4.634;2023-04-03T08:20:24;4.95;;;1.80;;
78858;SDS011;68210;52.032;4.634;2023-04-03T08:22:25;8.70;;;2.08;;
78858;SDS011;68210;52.032;4.634;2023-04-03T08:24:26;5.63;;;1.98;;
78858;SDS011;68210;52.032;4.634;2023-04-03T08:26:26;7.20;;;1.70;;
78858;SDS011;68210;52.032;4.634;2023-04-03T08:28:27;4.32;;;1.50;;
78858;SDS011;68210;52.032;4.634;2023-04-03T08:30:27;4.78;;;1.27;;
78858;SDS011;68210;52.032;4.634;2023-04-03T08:32:28;2.53;;;1.50;;
78858;SDS011;68210;52.032;4.634;2023-04-03T08:34:28;7.25;;;1.90;;
78858;SDS011;68210;52.032;4.634;2023-04-03T08:36:29;2.83;;;1.50;;
78858;SDS011;68210;52.032;4.634;2023-04-03T08:38:29;3.80;;;1.25;;
78858;SDS011;68210;52.032;4.634;2023-04-03T08:40:30;4.90;;;1.50;;
78858;SDS011;68210;52.032;4.634;2023-04-03T08:42:51;6.50;;;2.25;;
78858;SDS011;68210;52.032;4.634;2023-04-03T08:45:01;2.75;;;1.30;;
78858;SDS011;68210;52.032;4.634;2023-04-03T08:47:11;3.47;;;1.35;;
78858;SDS011;68210;52.032;4.634;2023-04-03T08:51:47;3.50;;;1.35;;
78858;SDS011;68210;52.032;4.634;2023-04-03T08:53:54;3.13;;;1.65;;
78858;SDS011;68210;52.032;4.634;2023-04-03T08:55:58;4.93;;;1.40;;
78858;SDS011;68210;52.032;4.634;2023-04-03T08:58:26;2.58;;;1.20;;
78858;SDS011;68210;52.032;4.634;2023-04-03T09:00:28;4.00;;;1.20;;
78858;SDS011;68210;52.032;4.634;2023-04-03T09:02:44;3.60;;;1.25;;
78858;SDS011;68210;52.032;4.634;2023-04-03T09:04:47;4.38;;;1.27;;
78858;SDS011;68210;52.032;4.634;2023-04-03T09:06:52;4.22;;;1.02;;
78858;SDS011;68210;52.032;4.634;2023-04-03T09:11:16;5.95;;;2.03;;
78858;SDS011;68210;52.032;4.634;2023-04-03T09:13:26;3.72;;;1.20;;
78858;SDS011;68210;52.032;4.634;2023-04-03T09:15:36;2.10;;;1.00;;
78858;SDS011;68210;52.032;4.634;2023-04-03T09:22:13;2.92;;;1.13;;
78858;SDS011;68210;52.032;4.634;2023-04-03T09:24:24;3.15;;;0.73;;
78858;SDS011;68210;52.032;4.634;2023-04-03T09:28:31;2.05;;;1.33;;
78858;SDS011;68210;52.032;4.634;2023-04-03T09:30:35;1.23;;;0.65;;
78858;SDS011;68210;52.032;4.634;2023-04-03T09:32:36;2.45;;;1.23;;
78858;SDS011;68210;52.032;4.634;2023-04-03T09:34:36;1.35;;;0.60;;
78858;SDS011;68210;52.032;4.634;2023-04-03T09:38:40;6.10;;;1.00;;
78858;SDS011;68210;52.032;4.634;2023-04-03T09:40:44;4.10;;;0.98;;
78858;SDS011;68210;52.032;4.634;2023-04-03T09:42:46;5.07;;;0.93;;
78858;SDS011;68210;52.032;4.634;2023-04-03T09:44:54;3.42;;;0.88;;
78858;SDS011;68210;52.032;4.634;2023-04-03T09:46:56;1.65;;;0.85;;
78858;SDS011;68210;52.032;4.634;2023-04-03T09:48:58;1.70;;;1.10;;
78858;SDS011;68210;52.032;4.634;2023-04-03T09:51:01;1.48;;;0.82;;
78858;SDS011;68210;52.032;4.634;2023-04-03T09:53:06;1.48;;;0.90;;
78858;SDS011;68210;52.032;4.634;2023-04-03T09:55:26;2.15;;;1.63;;
78858;SDS011;68210;52.032;4.634;2023-04-03T09:57:32;0.98;;;0.70;;
78858;SDS011;68210;52.032;4.634;2023-04-03T09:59:32;1.77;;;0.82;;
78858;SDS011;68210;52.032;4.634;2023-04-03T10:01:34;2.72;;;1.15;;
78858;SDS011;68210;52.032;4.634;2023-04-03T10:05:41;3.22;;;0.95;;
78858;SDS011;68210;52.032;4.634;2023-04-03T10:09:43;1.38;;;0.93;;
78858;SDS011;68210;52.032;4.634;2023-04-03T10:14:10;0.85;;;0.68;;
78858;SDS011;68210;52.032;4.634;2023-04-03T10:16:17;2.13;;;0.82;;
78858;SDS011;68210;52.032;4.634;2023-04-03T10:20:35;2.20;;;0.75;;
78858;SDS011;68210;52.032;4.634;2023-04-03T10:22:45;2.70;;;0.93;;
78858;SDS011;68210;52.032;4.634;2023-04-03T10:27:03;2.95;;;0.75;;
78858;SDS011;68210;52.032;4.634;2023-04-03T10:31:56;1.60;;;0.85;;
78858;SDS011;68210;52.032;4.634;2023-04-03T10:39:20;3.33;;;1.23;;
78858;SDS011;68210;52.032;4.634;2023-04-03T10:41:12;3.53;;;1.50;;
78858;SDS011;68210;52.032;4.634;2023-04-03T10:52:35;1.13;;;0.70;;
78858;SDS011;68210;52.032;4.634;2023-04-03T10:54:47;2.83;;;0.80;;
78858;SDS011;68210;52.032;4.634;2023-04-03T10:56:57;1.23;;;0.70;;
78858;SDS011;68210;52.032;4.634;2023-04-03T10:59:08;1.92;;;0.57;;
78858;SDS011;68210;52.032;4.634;2023-04-03T11:01:13;2.13;;;1.05;;
78858;SDS011;68210;52.032;4.634;2023-04-03T11:07:40;2.63;;;0.50;;
78858;SDS011;68210;52.032;4.634;2023-04-03T11:09:46;2.58;;;0.70;;
78858;SDS011;68210;52.032;4.634;2023-04-03T11:11:56;7.65;;;0.80;;
78858;SDS011;68210;52.032;4.634;2023-04-03T11:16:26;2.72;;;0.70;;
78858;SDS011;68210;52.032;4.634;2023-04-03T11:18:32;0.93;;;0.52;;
78858;SDS011;68210;52.032;4.634;2023-04-03T11:20:40;1.38;;;0.82;;
78858;SDS011;68210;52.032;4.634;2023-04-03T11:22:51;2.40;;;0.80;;
78858;SDS011;68210;52.032;4.634;2023-04-03T11:27:04;3.10;;;0.68;;
78858;SDS011;68210;52.032;4.634;2023-04-03T11:29:07;1.45;;;0.77;;
78858;SDS011;68210;52.032;4.634;2023-04-03T11:31:19;0.95;;;0.50;;
78858;SDS011;68210;52.032;4.634;2023-04-03T11:33:44;0.80;;;0.63;;
78858;SDS011;68210;52.032;4.634;2023-04-03T11:35:55;0.50;;;0.50;;
78858;SDS011;68210;52.032;4.634;2023-04-03T11:38:00;0.80;;;0.40;;
78858;SDS011;68210;52.032;4.634;2023-04-03T11:44:29;0.95;;;0.43;;
78858;SDS011;68210;52.032;4.634;2023-04-03T11:46:56;2.30;;;0.60;;
78858;SDS011;68210;52.032;4.634;2023-04-03T11:48:58;1.38;;;0.40;;
78858;SDS011;68210;52.032;4.634;2023-04-03T11:51:02;0.70;;;0.32;;
78858;SDS011;68210;52.032;4.634;2023-04-03T11:53:39;1.67;;;0.32;;
78858;SDS011;68210;52.032;4.634;2023-04-03T11:59:59;0.35;;;0.32;;
78858;SDS011;68210;52.032;4.634;2023-04-03T12:01:59;1.25;;;0.50;;
78858;SDS011;68210;52.032;4.634;2023-04-03T12:04:08;4.20;;;0.50;;
78858;SDS011;68210;52.032;4.634;2023-04-03T12:10:32;2.28;;;0.50;;
78858;SDS011;68210;52.032;4.634;2023-04-03T12:12:34;2.50;;;0.73;;
78858;SDS011;68210;52.032;4.634;2023-04-03T12:14:37;1.13;;;0.50;;
78858;SDS011;68210;52.032;4.634;2023-04-03T12:20:54;0.80;;;0.50;;
78858;SDS011;68210;52.032;4.634;2023-04-03T12:28:17;6.82;;;0.68;;
78858;SDS011;68210;52.032;4.634;2023-04-03T12:30:27;1.35;;;0.60;;
78858;SDS011;68210;52.032;4.634;2023-04-03T12:39:42;0.88;;;0.47;;
78858;SDS011;68210;52.032;4.634;2023-04-03T12:42:09;3.58;;;1.00;;
78858;SDS011;68210;52.032;4.634;2023-04-03T12:44:22;12.10;;;1.05;;
78858;SDS011;68210;52.032;4.634;2023-04-03T12:46:28;1.40;;;0.57;;
78858;SDS011;68210;52.032;4.634;2023-04-03T12:48:38;3.97;;;0.65;;
78858;SDS011;68210;52.032;4.634;2023-04-03T12:50:39;1.50;;;0.80;;
78858;SDS011;68210;52.032;4.634;2023-04-03T12:52:41;2.50;;;0.70;;
78858;SDS011;68210;52.032;4.634;2023-04-03T12:54:47;7.82;;;1.63;;
78858;SDS011;68210;52.032;4.634;2023-04-03T12:56:48;1.30;;;0.68;;
78858;SDS011;68210;52.032;4.634;2023-04-03T12:58:49;1.58;;;0.80;;
78858;SDS011;68210;52.032;4.634;2023-04-03T13:01:03;2.17;;;0.70;;
78858;SDS011;68210;52.032;4.634;2023-04-03T13:03:25;3.00;;;0.88;;
78858;SDS011;68210;52.032;4.634;2023-04-03T13:05:29;3.78;;;1.02;;
78858;SDS011;68210;52.032;4.634;2023-04-03T13:07:34;3.05;;;1.33;;
78858;SDS011;68210;52.032;4.634;2023-04-03T13:09:38;1.58;;;0.70;;
78858;SDS011;68210;52.032;4.634;2023-04-03T13:11:39;1.85;;;0.63;;
78858;SDS011;68210;52.032;4.634;2023-04-03T13:13:53;1.30;;;0.70;;
78858;SDS011;68210;52.032;4.634;2023-04-03T13:15:55;2.25;;;0.65;;
78858;SDS011;68210;52.032;4.634;2023-04-03T13:17:56;4.07;;;1.00;;
78858;SDS011;68210;52.032;4.634;2023-04-03T13:19:56;1.00;;;0.73;;
78858;SDS011;68210;52.032;4.634;2023-04-03T13:24:25;2.90;;;0.90;;
78858;SDS011;68210;52.032;4.634;2023-04-03T13:26:28;1.88;;;1.02;;
78858;SDS011;68210;52.032;4.634;2023-04-03T13:28:31;4.28;;;0.90;;
78858;SDS011;68210;52.032;4.634;2023-04-03T13:30:36;2.08;;;0.73;;
78858;SDS011;68210;52.032;4.634;2023-04-03T13:32:37;1.63;;;0.73;;
78858;SDS011;68210;52.032;4.634;2023-04-03T13:34:38;14.00;;;2.97;;
78858;SDS011;68210;52.032;4.634;2023-04-03T13:36:43;7.90;;;1.42;;
78858;SDS011;68210;52.032;4.634;2023-04-03T13:39:00;5.28;;;1.23;;
78858;SDS011;68210;52.032;4.634;2023-04-03T13:41:20;3.10;;;0.93;;
78858;SDS011;68210;52.032;4.634;2023-04-03T13:43:25;1.60;;;0.70;;
78858;SDS011;68210;52.032;4.634;2023-04-03T13:45:29;1.27;;;0.77;;
78858;SDS011;68210;52.032;4.634;2023-04-03T13:47:38;1.85;;;1.02;;
78858;SDS011;68210;52.032;4.634;2023-04-03T13:49:41;3.00;;;0.70;;
78858;SDS011;68210;52.032;4.634;2023-04-03T13:51:44;4.22;;;1.00;;